sensor_id;sensor_type;location;lat;lon;timestamp;pressure;altitude;pressure_sealevel;temperature;humidity
50434;BME280;36361;38.954;-9.002;2022-09-27T00:00:16;100979.66;;;18.46;71.21
50434;BME280;36361;38.954;-9.002;2022-09-27T00:01:16;100979.44;;;18.75;69.73
50434;BME280;36361;38.954;-9.002;2022-09-27T00:02:17;100978.09;;;19.20;67.46
50434;BME280;36361;38.954;-9.002;2022-09-27T00:03:18;100968.66;;;19.48;66.53
50434;BME280;36361;38.954;-9.002;2022-09-27T00:04:18;100965.06;;;19.52;65.71
50434;BME280;36361;38.954;-9.002;2022-09-27T00:05:19;100965.47;;;19.29;67.57
50434;BME280;36361;38.954;-9.002;2022-09-27T00:06:26;100971.53;;;19.26;67.51
50434;BME280;36361;38.954;-9.002;2022-09-27T00:07:27;100970.78;;;19.36;66.54
50434;BME280;36361;38.954;-9.002;2022-09-27T00:08:35;100972.16;;;19.80;64.62
50434;BME280;36361;38.954;-9.002;2022-09-27T00:09:36;100967.53;;;20.01;63.67
50434;BME280;36361;38.954;-9.002;2022-09-27T00:10:40;100962.88;;;20.12;63.41
50434;BME280;36361;38.954;-9.002;2022-09-27T00:11:41;100969.72;;;19.99;63.83
50434;BME280;36361;38.954;-9.002;2022-09-27T00:12:45;100966.38;;;19.92;63.75
50434;BME280;36361;38.954;-9.002;2022-09-27T00:13:46;100967.19;;;19.35;66.24
50434;BME280;36361;38.954;-9.002;2022-09-27T00:14:46;100974.16;;;18.46;69.92
50434;BME280;36361;38.954;-9.002;2022-09-27T00:15:55;100972.50;;;19.04;67.88
50434;BME280;36361;38.954;-9.002;2022-09-27T00:16:55;100974.91;;;19.33;66.56
50434;BME280;36361;38.954;-9.002;2022-09-27T00:17:56;100965.63;;;19.49;65.97
50434;BME280;36361;38.954;-9.002;2022-09-27T00:18:59;100973.75;;;18.60;69.61
50434;BME280;36361;38.954;-9.002;2022-09-27T00:20:00;100969.88;;;19.25;66.90
50434;BME280;36361;38.954;-9.002;2022-09-27T00:21:09;100962.88;;;19.54;65.87
50434;BME280;36361;38.954;-9.002;2022-09-27T00:22:10;100964.91;;;19.27;67.15
50434;BME280;36361;38.954;-9.002;2022-09-27T00:23:11;100954.03;;;19.52;65.76
50434;BME280;36361;38.954;-9.002;2022-09-27T00:24:16;100953.31;;;19.67;65.07
50434;BME280;36361;38.954;-9.002;2022-09-27T00:25:17;100963.50;;;19.62;65.66
50434;BME280;36361;38.954;-9.002;2022-09-27T00:26:18;100964.66;;;19.28;66.72
50434;BME280;36361;38.954;-9.002;2022-09-27T00:27:19;100963.31;;;19.31;66.70
50434;BME280;36361;38.954;-9.002;2022-09-27T00:28:20;100964.53;;;19.55;65.44
50434;BME280;36361;38.954;-9.002;2022-09-27T00:29:21;100961.50;;;19.52;66.23
50434;BME280;36361;38.954;-9.002;2022-09-27T00:30:22;100962.75;;;19.34;66.84
50434;BME280;36361;38.954;-9.002;2022-09-27T00:31:27;100963.06;;;19.00;67.64
50434;BME280;36361;38.954;-9.002;2022-09-27T00:32:29;100960.31;;;18.95;68.35
50434;BME280;36361;38.954;-9.002;2022-09-27T00:33:29;100959.47;;;19.37;66.47
50434;BME280;36361;38.954;-9.002;2022-09-27T00:34:30;100958.94;;;19.40;66.53
50434;BME280;36361;38.954;-9.002;2022-09-27T00:35:31;100952.63;;;19.45;66.49
50434;BME280;36361;38.954;-9.002;2022-09-27T00:36:33;100961.44;;;19.47;66.84
50434;BME280;36361;38.954;-9.002;2022-09-27T00:37:34;100970.50;;;19.32;67.05
50434;BME280;36361;38.954;-9.002;2022-09-27T00:38:34;100963.88;;;19.38;66.93
50434;BME280;36361;38.954;-9.002;2022-09-27T00:39:36;100966.63;;;19.33;67.19
50434;BME280;36361;38.954;-9.002;2022-09-27T00:40:39;100965.97;;;19.16;68.15
50434;BME280;36361;38.954;-9.002;2022-09-27T00:41:43;100961.34;;;18.89;69.08
50434;BME280;36361;38.954;-9.002;2022-09-27T00:42:44;100959.75;;;18.98;68.68
50434;BME280;36361;38.954;-9.002;2022-09-27T00:45:03;100961.88;;;18.86;69.43
50434;BME280;36361;38.954;-9.002;2022-09-27T00:46:04;100961.53;;;18.78;69.95
50434;BME280;36361;38.954;-9.002;2022-09-27T00:48:06;100963.00;;;18.90;69.54
50434;BME280;36361;38.954;-9.002;2022-09-27T00:51:26;100967.63;;;19.17;68.59
50434;BME280;36361;38.954;-9.002;2022-09-27T00:52:39;100962.81;;;19.44;67.10
50434;BME280;36361;38.954;-9.002;2022-09-27T00:53:44;100964.38;;;19.25;67.72
50434;BME280;36361;38.954;-9.002;2022-09-27T00:54:52;100974.91;;;19.38;67.80
50434;BME280;36361;38.954;-9.002;2022-09-27T00:55:58;100966.13;;;19.46;67.40
50434;BME280;36361;38.954;-9.002;2022-09-27T00:57:01;100967.91;;;19.57;66.44
50434;BME280;36361;38.954;-9.002;2022-09-27T00:58:03;100966.31;;;19.67;66.45
50434;BME280;36361;38.954;-9.002;2022-09-27T00:59:09;100965.19;;;19.68;66.41
50434;BME280;36361;38.954;-9.002;2022-09-27T01:00:13;100964.22;;;19.99;64.90
50434;BME280;36361;38.954;-9.002;2022-09-27T01:01:15;100958.72;;;20.20;64.04
50434;BME280;36361;38.954;-9.002;2022-09-27T01:02:17;100965.84;;;19.90;66.02
50434;BME280;36361;38.954;-9.002;2022-09-27T01:03:42;100960.78;;;19.67;66.98
50434;BME280;36361;38.954;-9.002;2022-09-27T01:04:44;100960.09;;;19.49;67.58
50434;BME280;36361;38.954;-9.002;2022-09-27T01:05:47;100958.56;;;19.69;66.89
50434;BME280;36361;38.954;-9.002;2022-09-27T01:06:49;100972.19;;;19.43;67.43
50434;BME280;36361;38.954;-9.002;2022-09-27T01:07:50;100973.75;;;19.29;69.05
50434;BME280;36361;38.954;-9.002;2022-09-27T01:08:51;100969.72;;;19.42;67.83
50434;BME280;36361;38.954;-9.002;2022-09-27T01:09:51;100981.16;;;19.60;67.87
50434;BME280;36361;38.954;-9.002;2022-09-27T01:13:35;100973.91;;;19.54;68.25
50434;BME280;36361;38.954;-9.002;2022-09-27T01:17:12;100977.06;;;19.26;69.37
50434;BME280;36361;38.954;-9.002;2022-09-27T01:21:38;100967.69;;;19.27;70.73
50434;BME280;36361;38.954;-9.002;2022-09-27T01:25:20;100972.09;;;18.59;74.68
50434;BME280;36361;38.954;-9.002;2022-09-27T01:30:27;100963.47;;;18.77;72.70
50434;BME280;36361;38.954;-9.002;2022-09-27T01:32:34;100961.72;;;19.40;70.69
50434;BME280;36361;38.954;-9.002;2022-09-27T01:33:24;100970.56;;;19.05;71.80
50434;BME280;36361;38.954;-9.002;2022-09-27T01:34:46;100975.47;;;18.98;72.10
50434;BME280;36361;38.954;-9.002;2022-09-27T01:36:10;100969.00;;;19.14;72.26
50434;BME280;36361;38.954;-9.002;2022-09-27T01:38:33;100979.88;;;19.36;70.08
50434;BME280;36361;38.954;-9.002;2022-09-27T01:39:14;100971.00;;;18.92;72.62
50434;BME280;36361;38.954;-9.002;2022-09-27T01:41:02;100961.75;;;19.50;69.61
50434;BME280;36361;38.954;-9.002;2022-09-27T01:42:48;100959.69;;;19.68;69.49
50434;BME280;36361;38.954;-9.002;2022-09-27T01:44:02;100970.81;;;18.17;76.97
50434;BME280;36361;38.954;-9.002;2022-09-27T01:45:16;100973.84;;;18.43;76.36
50434;BME280;36361;38.954;-9.002;2022-09-27T01:46:53;100969.06;;;18.87;73.45
50434;BME280;36361;38.954;-9.002;2022-09-27T01:48:19;100968.16;;;18.77;74.03
50434;BME280;36361;38.954;-9.002;2022-09-27T01:49:31;100967.47;;;18.96;73.44
50434;BME280;36361;38.954;-9.002;2022-09-27T01:50:39;100965.88;;;18.68;75.78
50434;BME280;36361;38.954;-9.002;2022-09-27T01:51:49;100966.94;;;18.40;76.65
50434;BME280;36361;38.954;-9.002;2022-09-27T01:53:02;100971.16;;;18.48;77.16
50434;BME280;36361;38.954;-9.002;2022-09-27T01:54:18;100960.44;;;18.52;76.79
50434;BME280;36361;38.954;-9.002;2022-09-27T01:55:42;100962.00;;;18.69;75.59
50434;BME280;36361;38.954;-9.002;2022-09-27T01:57:09;100958.44;;;18.74;75.35
50434;BME280;36361;38.954;-9.002;2022-09-27T01:59:19;100958.25;;;18.27;78.74
50434;BME280;36361;38.954;-9.002;2022-09-27T02:00:44;100954.03;;;18.73;74.65
50434;BME280;36361;38.954;-9.002;2022-09-27T02:01:49;100963.13;;;18.46;77.14
50434;BME280;36361;38.954;-9.002;2022-09-27T02:02:56;100955.19;;;18.77;74.33
50434;BME280;36361;38.954;-9.002;2022-09-27T02:04:07;100961.97;;;18.96;74.27
50434;BME280;36361;38.954;-9.002;2022-09-27T02:05:11;100953.88;;;18.58;76.57
50434;BME280;36361;38.954;-9.002;2022-09-27T02:06:26;100950.66;;;18.12;78.26
50434;BME280;36361;38.954;-9.002;2022-09-27T02:07:45;100943.81;;;18.68;75.39
50434;BME280;36361;38.954;-9.002;2022-09-27T02:08:52;100954.59;;;19.07;73.45
50434;BME280;36361;38.954;-9.002;2022-09-27T02:10:14;100954.97;;;19.26;72.46
50434;BME280;36361;38.954;-9.002;2022-09-27T02:11:28;100948.41;;;19.79;69.10
50434;BME280;36361;38.954;-9.002;2022-09-27T02:12:50;100951.38;;;19.20;73.03
50434;BME280;36361;38.954;-9.002;2022-09-27T02:13:53;100940.19;;;19.47;70.81
50434;BME280;36361;38.954;-9.002;2022-09-27T02:15:17;100948.28;;;19.12;73.22
50434;BME280;36361;38.954;-9.002;2022-09-27T02:16:58;100953.88;;;18.58;76.30
50434;BME280;36361;38.954;-9.002;2022-09-27T02:18:27;100938.59;;;18.18;78.81
50434;BME280;36361;38.954;-9.002;2022-09-27T02:20:41;100942.81;;;18.53;76.80
50434;BME280;36361;38.954;-9.002;2022-09-27T02:24:43;100938.91;;;19.13;74.42
50434;BME280;36361;38.954;-9.002;2022-09-27T02:25:58;100934.22;;;19.18;73.90
50434;BME280;36361;38.954;-9.002;2022-09-27T02:27:29;100939.56;;;18.61;77.08
50434;BME280;36361;38.954;-9.002;2022-09-27T02:28:33;100942.78;;;18.47;76.85
50434;BME280;36361;38.954;-9.002;2022-09-27T02:29:42;100937.75;;;18.44;77.55
50434;BME280;36361;38.954;-9.002;2022-09-27T02:30:45;100933.75;;;18.89;74.59
50434;BME280;36361;38.954;-9.002;2022-09-27T02:31:53;100941.28;;;18.99;74.55
50434;BME280;36361;38.954;-9.002;2022-09-27T02:32:54;100946.84;;;19.04;74.72
50434;BME280;36361;38.954;-9.002;2022-09-27T02:34:00;100937.75;;;19.09;74.12
50434;BME280;36361;38.954;-9.002;2022-09-27T02:35:09;100932.72;;;19.43;72.05
50434;BME280;36361;38.954;-9.002;2022-09-27T02:36:12;100931.06;;;19.42;72.93
50434;BME280;36361;38.954;-9.002;2022-09-27T02:37:14;100934.88;;;19.78;70.17
50434;BME280;36361;38.954;-9.002;2022-09-27T02:38:15;100931.09;;;20.04;68.62
50434;BME280;36361;38.954;-9.002;2022-09-27T02:39:17;100925.88;;;20.23;68.25
50434;BME280;36361;38.954;-9.002;2022-09-27T02:40:18;100922.72;;;19.84;70.25
50434;BME280;36361;38.954;-9.002;2022-09-27T02:41:21;100924.91;;;19.77;70.66
50434;BME280;36361;38.954;-9.002;2022-09-27T02:42:23;100926.56;;;19.83;70.20
50434;BME280;36361;38.954;-9.002;2022-09-27T02:43:28;100929.34;;;19.78;70.06
50434;BME280;36361;38.954;-9.002;2022-09-27T02:44:30;100919.69;;;19.75;70.13
50434;BME280;36361;38.954;-9.002;2022-09-27T02:46:04;100922.94;;;19.20;73.54
50434;BME280;36361;38.954;-9.002;2022-09-27T02:54:25;100921.53;;;19.59;71.29
50434;BME280;36361;38.954;-9.002;2022-09-27T02:57:17;100918.66;;;19.39;71.75
50434;BME280;36361;38.954;-9.002;2022-09-27T03:00:57;100925.97;;;19.66;71.50
50434;BME280;36361;38.954;-9.002;2022-09-27T03:02:41;100923.34;;;20.11;68.21
50434;BME280;36361;38.954;-9.002;2022-09-27T03:04:10;100924.88;;;19.72;71.03
50434;BME280;36361;38.954;-9.002;2022-09-27T03:05:23;100921.63;;;19.90;69.32
50434;BME280;36361;38.954;-9.002;2022-09-27T03:06:26;100922.78;;;20.04;68.94
50434;BME280;36361;38.954;-9.002;2022-09-27T03:07:28;100915.00;;;19.86;69.53
50434;BME280;36361;38.954;-9.002;2022-09-27T03:08:29;100916.06;;;19.70;70.59
50434;BME280;36361;38.954;-9.002;2022-09-27T03:09:49;100913.06;;;19.29;72.89
50434;BME280;36361;38.954;-9.002;2022-09-27T03:10:53;100915.22;;;19.74;70.20
50434;BME280;36361;38.954;-9.002;2022-09-27T03:11:54;100915.31;;;20.00;68.74
50434;BME280;36361;38.954;-9.002;2022-09-27T03:12:56;100913.03;;;19.81;69.66
50434;BME280;36361;38.954;-9.002;2022-09-27T03:13:58;100916.94;;;19.85;70.21
50434;BME280;36361;38.954;-9.002;2022-09-27T03:15:00;100910.50;;;19.59;71.56
50434;BME280;36361;38.954;-9.002;2022-09-27T03:16:30;100912.34;;;19.54;71.29
50434;BME280;36361;38.954;-9.002;2022-09-27T03:17:42;100905.34;;;19.88;69.17
50434;BME280;36361;38.954;-9.002;2022-09-27T03:19:01;100913.06;;;19.92;69.01
50434;BME280;36361;38.954;-9.002;2022-09-27T03:20:17;100907.63;;;19.44;71.75
50434;BME280;36361;38.954;-9.002;2022-09-27T03:21:23;100909.19;;;19.25;72.56
50434;BME280;36361;38.954;-9.002;2022-09-27T03:22:27;100908.44;;;19.40;71.96
50434;BME280;36361;38.954;-9.002;2022-09-27T03:23:28;100908.19;;;19.46;71.22
50434;BME280;36361;38.954;-9.002;2022-09-27T03:24:30;100906.00;;;19.53;70.91
50434;BME280;36361;38.954;-9.002;2022-09-27T03:25:31;100909.50;;;19.33;72.77
50434;BME280;36361;38.954;-9.002;2022-09-27T03:26:32;100905.00;;;19.70;70.10
50434;BME280;36361;38.954;-9.002;2022-09-27T03:27:33;100907.25;;;18.83;74.58
50434;BME280;36361;38.954;-9.002;2022-09-27T03:28:35;100909.22;;;19.30;72.17
50434;BME280;36361;38.954;-9.002;2022-09-27T03:29:36;100905.78;;;19.60;70.90
50434;BME280;36361;38.954;-9.002;2022-09-27T03:30:40;100907.50;;;19.71;70.31
50434;BME280;36361;38.954;-9.002;2022-09-27T03:31:43;100907.84;;;19.85;69.46
50434;BME280;36361;38.954;-9.002;2022-09-27T03:33:12;100914.34;;;19.58;71.57
50434;BME280;36361;38.954;-9.002;2022-09-27T03:34:20;100901.72;;;19.78;69.85
50434;BME280;36361;38.954;-9.002;2022-09-27T03:35:21;100917.28;;;18.99;74.16
50434;BME280;36361;38.954;-9.002;2022-09-27T03:36:22;100913.38;;;18.90;75.29
50434;BME280;36361;38.954;-9.002;2022-09-27T03:37:23;100918.72;;;19.07;73.78
50434;BME280;36361;38.954;-9.002;2022-09-27T03:38:26;100914.19;;;19.38;72.59
50434;BME280;36361;38.954;-9.002;2022-09-27T03:39:26;100917.00;;;19.43;72.52
50434;BME280;36361;38.954;-9.002;2022-09-27T03:40:27;100913.25;;;19.65;71.04
50434;BME280;36361;38.954;-9.002;2022-09-27T03:41:28;100908.31;;;19.67;70.36
50434;BME280;36361;38.954;-9.002;2022-09-27T03:42:29;100914.13;;;19.23;73.07
50434;BME280;36361;38.954;-9.002;2022-09-27T03:43:30;100919.50;;;18.97;74.42
50434;BME280;36361;38.954;-9.002;2022-09-27T03:44:35;100912.22;;;19.23;72.85
50434;BME280;36361;38.954;-9.002;2022-09-27T03:45:36;100915.22;;;18.47;76.37
50434;BME280;36361;38.954;-9.002;2022-09-27T03:46:41;100904.38;;;18.68;76.03
50434;BME280;36361;38.954;-9.002;2022-09-27T03:47:41;100914.59;;;18.67;75.86
50434;BME280;36361;38.954;-9.002;2022-09-27T03:48:43;100908.16;;;18.62;76.70
50434;BME280;36361;38.954;-9.002;2022-09-27T03:49:44;100912.59;;;18.09;79.62
50434;BME280;36361;38.954;-9.002;2022-09-27T03:50:44;100911.56;;;18.74;76.06
50434;BME280;36361;38.954;-9.002;2022-09-27T03:51:45;100906.38;;;19.20;74.13
50434;BME280;36361;38.954;-9.002;2022-09-27T03:52:46;100922.22;;;18.33;77.80
50434;BME280;36361;38.954;-9.002;2022-09-27T03:53:47;100911.63;;;18.79;75.58
50434;BME280;36361;38.954;-9.002;2022-09-27T03:54:48;100910.78;;;19.16;74.05
50434;BME280;36361;38.954;-9.002;2022-09-27T03:55:49;100917.00;;;19.43;71.96
50434;BME280;36361;38.954;-9.002;2022-09-27T03:56:50;100911.25;;;19.50;71.44
50434;BME280;36361;38.954;-9.002;2022-09-27T03:57:51;100918.28;;;19.78;70.47
50434;BME280;36361;38.954;-9.002;2022-09-27T03:58:53;100922.16;;;19.82;70.37
50434;BME280;36361;38.954;-9.002;2022-09-27T03:59:54;100918.22;;;19.63;71.26
50434;BME280;36361;38.954;-9.002;2022-09-27T04:01:12;100913.31;;;19.80;70.09
50434;BME280;36361;38.954;-9.002;2022-09-27T04:02:15;100916.97;;;20.01;69.02
50434;BME280;36361;38.954;-9.002;2022-09-27T04:03:34;100916.72;;;20.07;68.77
50434;BME280;36361;38.954;-9.002;2022-09-27T04:04:58;100924.91;;;19.77;70.11
50434;BME280;36361;38.954;-9.002;2022-09-27T04:05:59;100916.63;;;19.77;70.09
50434;BME280;36361;38.954;-9.002;2022-09-27T04:07:08;100922.75;;;19.37;71.67
50434;BME280;36361;38.954;-9.002;2022-09-27T04:08:10;100909.22;;;19.35;72.17
50434;BME280;36361;38.954;-9.002;2022-09-27T04:09:11;100924.84;;;19.62;70.80
50434;BME280;36361;38.954;-9.002;2022-09-27T04:10:29;100919.50;;;19.45;71.46
50434;BME280;36361;38.954;-9.002;2022-09-27T04:11:30;100912.72;;;19.68;70.68
50434;BME280;36361;38.954;-9.002;2022-09-27T04:12:31;100921.97;;;18.99;74.50
50434;BME280;36361;38.954;-9.002;2022-09-27T04:13:33;100929.97;;;19.00;74.14
50434;BME280;36361;38.954;-9.002;2022-09-27T04:14:35;100927.88;;;18.75;76.11
50434;BME280;36361;38.954;-9.002;2022-09-27T04:15:54;100922.28;;;18.38;77.69
50434;BME280;36361;38.954;-9.002;2022-09-27T04:16:57;100912.75;;;18.83;75.60
50434;BME280;36361;38.954;-9.002;2022-09-27T04:18:17;100921.84;;;18.52;77.39
50434;BME280;36361;38.954;-9.002;2022-09-27T04:19:24;100927.00;;;18.70;76.20
50434;BME280;36361;38.954;-9.002;2022-09-27T04:20:38;100918.88;;;19.38;72.94
50434;BME280;36361;38.954;-9.002;2022-09-27T04:21:44;100918.22;;;19.63;71.53
50434;BME280;36361;38.954;-9.002;2022-09-27T04:22:46;100913.22;;;18.43;78.18
50434;BME280;36361;38.954;-9.002;2022-09-27T04:23:47;100925.00;;;18.33;79.45
50434;BME280;36361;38.954;-9.002;2022-09-27T04:24:50;100914.94;;;18.76;76.91
50434;BME280;36361;38.954;-9.002;2022-09-27T04:25:59;100909.16;;;18.78;76.30
50434;BME280;36361;38.954;-9.002;2022-09-27T04:27:32;100910.78;;;19.16;75.17
50434;BME280;36361;38.954;-9.002;2022-09-27T04:28:33;100922.25;;;18.97;75.63
50434;BME280;36361;38.954;-9.002;2022-09-27T04:29:34;100908.63;;;18.54;78.06
50434;BME280;36361;38.954;-9.002;2022-09-27T04:30:49;100912.69;;;18.73;76.32
50434;BME280;36361;38.954;-9.002;2022-09-27T04:32:28;100911.69;;;18.84;76.29
50434;BME280;36361;38.954;-9.002;2022-09-27T04:34:04;100910.19;;;19.09;74.27
50434;BME280;36361;38.954;-9.002;2022-09-27T04:35:09;100908.03;;;19.16;74.19
50434;BME280;36361;38.954;-9.002;2022-09-27T04:36:28;100923.13;;;19.03;74.63
50434;BME280;36361;38.954;-9.002;2022-09-27T04:37:36;100917.41;;;19.20;74.00
50434;BME280;36361;38.954;-9.002;2022-09-27T04:38:38;100915.94;;;19.02;75.24
50434;BME280;36361;38.954;-9.002;2022-09-27T04:39:40;100903.72;;;19.35;73.06
50434;BME280;36361;38.954;-9.002;2022-09-27T04:40:41;100912.19;;;19.71;71.40
50434;BME280;36361;38.954;-9.002;2022-09-27T04:41:42;100915.22;;;19.69;71.27
50434;BME280;36361;38.954;-9.002;2022-09-27T04:42:43;100917.06;;;18.69;75.85
50434;BME280;36361;38.954;-9.002;2022-09-27T04:43:44;100913.38;;;19.38;72.91
50434;BME280;36361;38.954;-9.002;2022-09-27T04:44:45;100913.88;;;19.77;70.72
50434;BME280;36361;38.954;-9.002;2022-09-27T04:45:47;100911.72;;;19.94;70.17
50434;BME280;36361;38.954;-9.002;2022-09-27T04:46:47;100903.75;;;19.40;72.39
50434;BME280;36361;38.954;-9.002;2022-09-27T04:47:50;100904.25;;;19.32;72.57
50434;BME280;36361;38.954;-9.002;2022-09-27T04:48:54;100898.38;;;19.18;73.10
50434;BME280;36361;38.954;-9.002;2022-09-27T04:49:54;100908.69;;;19.33;72.63
50434;BME280;36361;38.954;-9.002;2022-09-27T04:51:00;100907.84;;;19.85;70.09
50434;BME280;36361;38.954;-9.002;2022-09-27T04:52:07;100908.97;;;19.94;69.96
50434;BME280;36361;38.954;-9.002;2022-09-27T04:53:15;100908.28;;;19.62;71.07
50434;BME280;36361;38.954;-9.002;2022-09-27T04:54:16;100919.72;;;19.96;69.64
50434;BME280;36361;38.954;-9.002;2022-09-27T04:55:51;100913.31;;;19.22;73.13
50434;BME280;36361;38.954;-9.002;2022-09-27T04:56:53;100917.72;;;19.23;73.03
50434;BME280;36361;38.954;-9.002;2022-09-27T04:57:53;100917.19;;;19.79;70.51
50434;BME280;36361;38.954;-9.002;2022-09-27T04:58:54;100921.56;;;19.70;70.94
50434;BME280;36361;38.954;-9.002;2022-09-27T04:59:55;100926.66;;;18.98;74.31
50434;BME280;36361;38.954;-9.002;2022-09-27T05:00:56;100924.53;;;18.41;77.16
50434;BME280;36361;38.954;-9.002;2022-09-27T05:02:20;100923.06;;;18.98;74.59
50434;BME280;36361;38.954;-9.002;2022-09-27T05:03:50;100918.81;;;18.80;75.65
50434;BME280;36361;38.954;-9.002;2022-09-27T05:04:55;100920.47;;;18.81;75.97
50434;BME280;36361;38.954;-9.002;2022-09-27T05:06:03;100938.38;;;19.16;73.86
50434;BME280;36361;38.954;-9.002;2022-09-27T05:07:06;100923.13;;;19.55;72.18
50434;BME280;36361;38.954;-9.002;2022-09-27T05:08:16;100936.72;;;18.78;75.85
50434;BME280;36361;38.954;-9.002;2022-09-27T05:09:37;100921.97;;;18.08;79.91
50434;BME280;36361;38.954;-9.002;2022-09-27T05:10:38;100936.38;;;18.42;78.33
50434;BME280;36361;38.954;-9.002;2022-09-27T05:11:39;100932.50;;;18.70;76.15
50434;BME280;36361;38.954;-9.002;2022-09-27T05:13:02;100927.13;;;19.27;73.28
50434;BME280;36361;38.954;-9.002;2022-09-27T05:14:04;100926.28;;;19.27;73.14
50434;BME280;36361;38.954;-9.002;2022-09-27T05:15:13;100917.47;;;19.25;73.27
50434;BME280;36361;38.954;-9.002;2022-09-27T05:16:33;100926.81;;;18.82;75.00
50434;BME280;36361;38.954;-9.002;2022-09-27T05:17:54;100933.16;;;18.55;76.44
50434;BME280;36361;38.954;-9.002;2022-09-27T05:19:13;100931.84;;;17.82;80.14
50434;BME280;36361;38.954;-9.002;2022-09-27T05:20:38;100928.75;;;18.22;78.73
50434;BME280;36361;38.954;-9.002;2022-09-27T05:21:55;100938.13;;;18.26;78.11
50434;BME280;36361;38.954;-9.002;2022-09-27T05:22:56;100932.34;;;18.55;76.87
50434;BME280;36361;38.954;-9.002;2022-09-27T05:23:58;100933.31;;;18.65;76.16
50434;BME280;36361;38.954;-9.002;2022-09-27T05:25:01;100932.25;;;19.09;74.02
50434;BME280;36361;38.954;-9.002;2022-09-27T05:26:06;100932.13;;;18.61;75.24
50434;BME280;36361;38.954;-9.002;2022-09-27T05:27:12;100938.66;;;19.19;73.26
50434;BME280;36361;38.954;-9.002;2022-09-27T05:28:18;100939.00;;;18.59;75.25
50434;BME280;36361;38.954;-9.002;2022-09-27T05:29:22;100937.25;;;19.12;73.57
50434;BME280;36361;38.954;-9.002;2022-09-27T05:30:37;100934.00;;;19.67;71.22
50434;BME280;36361;38.954;-9.002;2022-09-27T05:31:46;100928.78;;;19.28;72.47
50434;BME280;36361;38.954;-9.002;2022-09-27T05:32:47;100932.44;;;19.39;71.88
50434;BME280;36361;38.954;-9.002;2022-09-27T05:34:07;100943.41;;;18.60;75.57
50434;BME280;36361;38.954;-9.002;2022-09-27T05:35:16;100938.09;;;18.75;75.05
50434;BME280;36361;38.954;-9.002;2022-09-27T05:36:18;100945.53;;;18.80;74.51
50434;BME280;36361;38.954;-9.002;2022-09-27T05:37:19;100950.44;;;19.10;73.15
50434;BME280;36361;38.954;-9.002;2022-09-27T05:38:21;100942.19;;;19.10;73.60
50434;BME280;36361;38.954;-9.002;2022-09-27T05:39:24;100947.97;;;19.50;71.57
50434;BME280;36361;38.954;-9.002;2022-09-27T05:40:25;100949.97;;;19.18;72.94
50434;BME280;36361;38.954;-9.002;2022-09-27T05:41:26;100950.94;;;19.01;73.80
50434;BME280;36361;38.954;-9.002;2022-09-27T05:42:26;100947.81;;;19.25;72.67
50434;BME280;36361;38.954;-9.002;2022-09-27T05:43:27;100939.81;;;18.86;73.78
50434;BME280;36361;38.954;-9.002;2022-09-27T05:44:29;100944.09;;;18.72;75.24
50434;BME280;36361;38.954;-9.002;2022-09-27T05:45:33;100953.03;;;18.84;74.59
50434;BME280;36361;38.954;-9.002;2022-09-27T05:46:37;100946.97;;;19.24;72.81
50434;BME280;36361;38.954;-9.002;2022-09-27T05:47:39;100947.25;;;19.23;72.67
50434;BME280;36361;38.954;-9.002;2022-09-27T05:48:39;100937.06;;;19.28;72.54
50434;BME280;36361;38.954;-9.002;2022-09-27T05:49:41;100934.63;;;19.84;69.84
50434;BME280;36361;38.954;-9.002;2022-09-27T05:50:44;100943.75;;;20.00;69.14
50434;BME280;36361;38.954;-9.002;2022-09-27T05:51:45;100943.75;;;19.95;69.37
50434;BME280;36361;38.954;-9.002;2022-09-27T05:52:47;100940.69;;;19.34;71.73
50434;BME280;36361;38.954;-9.002;2022-09-27T05:53:49;100943.41;;;19.29;71.62
50434;BME280;36361;38.954;-9.002;2022-09-27T05:55:08;100952.03;;;19.00;73.34
50434;BME280;36361;38.954;-9.002;2022-09-27T05:56:09;100934.09;;;19.40;71.72
50434;BME280;36361;38.954;-9.002;2022-09-27T05:57:29;100942.28;;;19.72;70.20
50434;BME280;36361;38.954;-9.002;2022-09-27T05:58:36;100937.16;;;19.01;72.84
50434;BME280;36361;38.954;-9.002;2022-09-27T05:59:47;100952.44;;;18.77;73.69
50434;BME280;36361;38.954;-9.002;2022-09-27T06:00:54;100949.19;;;18.85;73.89
50434;BME280;36361;38.954;-9.002;2022-09-27T06:02:13;100951.22;;;19.00;73.44
50434;BME280;36361;38.954;-9.002;2022-09-27T06:03:25;100960.16;;;18.53;75.73
50434;BME280;36361;38.954;-9.002;2022-09-27T06:05:05;100957.31;;;19.02;73.39
50434;BME280;36361;38.954;-9.002;2022-09-27T06:06:06;100960.34;;;18.41;75.44
50434;BME280;36361;38.954;-9.002;2022-09-27T06:07:14;100962.63;;;18.77;74.44
50434;BME280;36361;38.954;-9.002;2022-09-27T06:08:15;100968.75;;;18.03;77.38
50434;BME280;36361;38.954;-9.002;2022-09-27T06:09:19;100956.31;;;17.78;79.05
50434;BME280;36361;38.954;-9.002;2022-09-27T06:10:21;100956.31;;;17.78;79.56
50434;BME280;36361;38.954;-9.002;2022-09-27T06:11:22;100960.16;;;17.77;79.14
50434;BME280;36361;38.954;-9.002;2022-09-27T06:12:24;100952.19;;;17.59;80.50
50434;BME280;36361;38.954;-9.002;2022-09-27T06:13:24;100950.56;;;18.29;77.46
50434;BME280;36361;38.954;-9.002;2022-09-27T06:14:26;100949.69;;;18.23;76.49
50434;BME280;36361;38.954;-9.002;2022-09-27T06:15:34;100957.53;;;18.36;76.48
50434;BME280;36361;38.954;-9.002;2022-09-27T06:16:37;100958.06;;;18.33;76.55
50434;BME280;36361;38.954;-9.002;2022-09-27T06:17:37;100953.63;;;18.91;74.00
50434;BME280;36361;38.954;-9.002;2022-09-27T06:18:46;100958.19;;;17.95;76.52
50434;BME280;36361;38.954;-9.002;2022-09-27T06:19:48;100961.41;;;17.48;80.20
50434;BME280;36361;38.954;-9.002;2022-09-27T06:20:49;100956.44;;;17.88;79.26
50434;BME280;36361;38.954;-9.002;2022-09-27T06:21:54;100951.03;;;18.21;76.70
50434;BME280;36361;38.954;-9.002;2022-09-27T06:23:03;100954.53;;;18.11;77.95
50434;BME280;36361;38.954;-9.002;2022-09-27T06:24:04;100963.75;;;18.27;75.80
50434;BME280;36361;38.954;-9.002;2022-09-27T06:25:08;100963.56;;;18.33;76.15